createdAt,value
2023-05-11T00:00:33.009Z,23.09
2023-05-11T00:02:59.631Z,23.00
2023-05-11T00:05:26.239Z,22.98
2023-05-11T00:07:52.752Z,22.96
2023-05-11T00:10:19.506Z,22.86
2023-05-11T00:12:46.154Z,22.75
2023-05-11T00:15:12.671Z,22.69
2023-05-11T00:17:39.217Z,22.72
2023-05-11T00:20:06.354Z,22.64
2023-05-11T00:22:32.841Z,22.60
2023-05-11T00:24:59.348Z,22.55
2023-05-11T00:27:25.999Z,22.51
2023-05-11T00:29:52.510Z,22.49
2023-05-11T00:32:19.015Z,22.40
2023-05-11T00:34:45.842Z,22.37
2023-05-11T00:37:12.407Z,22.32
2023-05-11T00:39:40.611Z,22.26
2023-05-11T00:42:07.426Z,22.25
2023-05-11T00:44:33.953Z,22.19
2023-05-11T00:47:00.759Z,22.16
2023-05-11T00:49:27.712Z,22.14
2023-05-11T00:51:54.300Z,22.13
2023-05-11T00:54:21.205Z,22.08
2023-05-11T00:56:48.488Z,22.04
2023-05-11T00:59:15.210Z,21.98
2023-05-11T01:01:41.944Z,21.90
2023-05-11T01:04:08.701Z,21.88
2023-05-11T01:06:46.612Z,21.87
2023-05-11T01:10:01.398Z,22.03
2023-05-11T01:12:49.717Z,21.90
2023-05-11T01:15:30.863Z,21.75
2023-05-11T01:18:03.406Z,21.64
2023-05-11T01:20:30.275Z,21.44
2023-05-11T01:23:43.129Z,21.73
2023-05-11T01:26:19.029Z,21.39
2023-05-11T01:28:56.244Z,21.42
2023-05-11T01:31:26.073Z,21.34
2023-05-11T01:33:58.679Z,21.34
2023-05-11T01:36:30.128Z,21.33
2023-05-11T01:39:01.497Z,21.31
2023-05-11T01:41:28.473Z,21.22
2023-05-11T01:43:59.822Z,21.23
2023-05-11T01:46:27.483Z,21.15
2023-05-11T01:48:56.260Z,21.17
2023-05-11T01:51:24.206Z,21.08
2023-05-11T01:53:51.730Z,20.96
2023-05-11T01:56:20.102Z,21.00
2023-05-11T01:58:48.208Z,20.97
2023-05-11T02:01:18.168Z,20.99
2023-05-11T02:03:46.453Z,20.95
2023-05-11T02:06:14.418Z,20.92
2023-05-11T02:08:42.045Z,20.83
2023-05-11T02:11:10.483Z,20.82
2023-05-11T02:13:39.244Z,20.81
2023-05-11T02:16:06.732Z,20.80
2023-05-11T02:18:34.166Z,20.80
2023-05-11T02:21:01.438Z,20.75
2023-05-11T02:23:30.648Z,20.84
2023-05-11T02:25:57.738Z,20.82
2023-05-11T02:28:24.449Z,20.76
2023-05-11T02:30:54.147Z,20.84
2023-05-11T02:33:26.337Z,20.90
2023-05-11T02:35:55.525Z,20.79
2023-05-11T02:38:30.849Z,20.82
2023-05-11T02:40:58.975Z,20.74
2023-05-11T02:43:30.736Z,20.76
2023-05-11T02:46:03.877Z,20.79
2023-05-11T02:48:39.113Z,20.79
2023-05-11T02:51:08.672Z,20.66
2023-05-11T02:53:41.598Z,20.60
2023-05-11T02:56:08.893Z,20.58
2023-05-11T02:58:35.856Z,20.56
2023-05-11T03:01:19.814Z,20.58
2023-05-11T03:03:46.633Z,20.55
2023-05-11T03:06:13.447Z,20.55
2023-05-11T03:08:41.270Z,20.53
2023-05-11T03:11:09.132Z,20.53
2023-05-11T03:13:35.796Z,20.54
2023-05-11T03:16:05.107Z,20.44
2023-05-11T03:18:33.319Z,20.42
2023-05-11T03:21:00.749Z,20.40
2023-05-11T03:23:28.379Z,20.40
2023-05-11T03:25:55.237Z,20.35
2023-05-11T03:28:23.004Z,20.44
2023-05-11T03:31:00.517Z,20.51
2023-05-11T03:33:27.155Z,20.51
2023-05-11T03:35:54.134Z,20.48
2023-05-11T03:38:24.566Z,20.40
2023-05-11T03:40:52.666Z,20.42
2023-05-11T03:43:21.061Z,20.51
2023-05-11T03:45:53.263Z,20.49
2023-05-11T03:48:20.924Z,20.33
2023-05-11T03:50:47.789Z,20.35
2023-05-11T03:53:15.839Z,20.32
2023-05-11T03:55:42.838Z,20.34
2023-05-11T03:58:09.608Z,20.35
2023-05-11T04:00:42.737Z,20.40
2023-05-11T04:03:09.975Z,20.33
2023-05-11T04:05:38.084Z,20.14
2023-05-11T04:08:07.630Z,20.25
2023-05-11T04:10:34.200Z,20.24
2023-05-11T04:13:00.702Z,20.30
2023-05-11T04:15:27.317Z,20.24
2023-05-11T04:17:53.879Z,20.33
2023-05-11T04:20:20.790Z,20.31
2023-05-11T04:22:47.505Z,20.35
2023-05-11T04:25:14.685Z,20.30
2023-05-11T04:27:41.249Z,20.37
2023-05-11T04:30:08.226Z,20.48
2023-05-11T04:32:35.015Z,20.40
2023-05-11T04:35:02.126Z,20.32
2023-05-11T04:37:32.584Z,20.47
2023-05-11T04:40:00.897Z,20.44
2023-05-11T04:42:27.430Z,20.61
2023-05-11T04:44:56.103Z,20.70
2023-05-11T04:47:22.636Z,20.66
2023-05-11T04:49:49.226Z,20.64
2023-05-11T04:52:15.997Z,20.76
2023-05-11T04:54:45.215Z,20.74
2023-05-11T04:57:11.758Z,20.69
2023-05-11T04:59:38.553Z,20.70
2023-05-11T05:02:05.164Z,20.66
2023-05-11T05:04:32.969Z,20.81
2023-05-11T05:07:01.347Z,20.82
2023-05-11T05:09:27.841Z,20.88
2023-05-11T05:11:54.362Z,21.03
2023-05-11T05:14:20.875Z,21.13
2023-05-11T05:16:47.528Z,21.24
2023-05-11T05:19:14.206Z,21.10
2023-05-11T05:21:41.147Z,21.14
2023-05-11T05:24:11.076Z,21.31
2023-05-11T05:26:37.777Z,21.46
2023-05-11T05:29:05.465Z,21.60
2023-05-11T05:31:32.239Z,21.67
2023-05-11T05:33:59.138Z,21.73
2023-05-11T05:36:25.756Z,21.87
2023-05-11T05:38:52.393Z,21.97
2023-05-11T05:41:18.961Z,22.04
2023-05-11T05:43:46.091Z,22.12
2023-05-11T05:46:14.362Z,22.25
2023-05-11T05:48:41.716Z,22.27
2023-05-11T05:51:09.053Z,22.28
2023-05-11T05:53:35.660Z,22.41
2023-05-11T05:56:02.189Z,22.55
2023-05-11T05:58:29.252Z,22.67
2023-05-11T06:00:56.141Z,22.62
2023-05-11T06:03:23.457Z,22.73
2023-05-11T06:05:50.055Z,22.93
2023-05-11T06:08:16.886Z,22.95
2023-05-11T06:10:43.559Z,23.01
2023-05-11T06:13:11.066Z,23.22
2023-05-11T06:15:41.925Z,23.34
2023-05-11T06:18:16.936Z,23.68
2023-05-11T06:20:45.416Z,23.67
2023-05-11T06:23:13.354Z,23.63
2023-05-11T06:25:42.434Z,23.88
2023-05-11T06:28:09.446Z,23.99
2023-05-11T06:30:37.271Z,24.10
2023-05-11T06:33:06.182Z,24.21
2023-05-11T06:35:33.668Z,24.56
2023-05-11T06:38:00.308Z,24.60
2023-05-11T06:40:27.912Z,24.82
2023-05-11T06:42:54.537Z,24.98
2023-05-11T06:45:21.650Z,25.61
2023-05-11T06:47:48.418Z,28.72
2023-05-11T06:50:15.011Z,32.13
2023-05-11T06:52:41.591Z,33.48
2023-05-11T06:55:08.513Z,35.56
2023-05-11T06:57:34.990Z,36.65
2023-05-11T07:00:01.645Z,37.31
2023-05-11T07:02:28.549Z,36.00
2023-05-11T07:04:55.094Z,33.48
2023-05-11T07:07:22.693Z,31.06
2023-05-11T07:09:49.216Z,29.68
2023-05-11T07:12:15.792Z,28.85
2023-05-11T07:14:42.334Z,28.27
2023-05-11T07:17:09.277Z,27.88
2023-05-11T07:19:35.818Z,28.01
2023-05-11T07:22:02.505Z,28.22
2023-05-11T07:24:29.083Z,28.19
2023-05-11T07:26:57.342Z,28.18
2023-05-11T07:29:23.937Z,28.16
2023-05-11T07:31:50.508Z,28.20
2023-05-11T07:34:17.099Z,28.06
2023-05-11T07:36:43.679Z,28.06
2023-05-11T07:39:10.774Z,27.96
2023-05-11T07:41:37.376Z,28.21
2023-05-11T07:44:04.210Z,28.38
2023-05-11T07:46:30.841Z,28.62
2023-05-11T07:49:13.610Z,28.68
2023-05-11T07:51:42.140Z,28.85
2023-05-11T07:54:08.793Z,28.85
2023-05-11T07:56:35.331Z,28.90
2023-05-11T07:59:01.847Z,28.88
2023-05-11T08:01:28.443Z,28.78
2023-05-11T08:03:54.969Z,28.90
2023-05-11T08:06:21.632Z,29.00
2023-05-11T08:08:48.136Z,29.21
2023-05-11T08:11:14.662Z,29.22
2023-05-11T08:13:41.190Z,29.33
2023-05-11T08:16:07.803Z,29.31
2023-05-11T08:18:34.388Z,29.33
2023-05-11T08:21:00.929Z,29.49
2023-05-11T08:23:27.446Z,29.59
2023-05-11T08:25:55.972Z,29.91
2023-05-11T08:28:22.639Z,29.87
2023-05-11T08:30:56.472Z,30.42
2023-05-11T08:35:56.404Z,31.07
2023-05-11T08:38:22.916Z,31.61
2023-05-11T08:40:51.328Z,32.49
2023-05-11T08:43:18.980Z,33.79
2023-05-11T08:45:49.339Z,35.57
2023-05-11T08:48:17.903Z,36.77
2023-05-11T08:50:48.006Z,38.49
2023-05-11T08:53:14.759Z,39.35
2023-05-11T08:55:42.739Z,39.98
2023-05-11T08:58:09.878Z,40.15
2023-05-11T09:00:36.833Z,40.89
2023-05-11T09:03:04.459Z,41.26
2023-05-11T09:05:31.672Z,42.42
2023-05-11T09:08:04.262Z,43.62
2023-05-11T09:10:30.795Z,44.14
2023-05-11T09:12:57.326Z,44.22
2023-05-11T09:15:23.891Z,44.22
2023-05-11T09:17:50.454Z,43.93
2023-05-11T09:20:26.864Z,43.38
2023-05-11T09:22:54.010Z,43.11
2023-05-11T09:25:22.073Z,42.84
2023-05-11T09:27:48.662Z,43.16
2023-05-11T09:32:54.484Z,44.61
2023-05-11T09:35:31.322Z,43.00
2023-05-11T09:38:02.460Z,40.89
2023-05-11T09:40:34.322Z,39.41
2023-05-11T09:43:02.136Z,38.15
2023-05-11T09:45:42.011Z,37.58
2023-05-11T09:48:21.107Z,36.80
2023-05-11T09:50:48.738Z,36.03
2023-05-11T09:53:15.442Z,35.70
2023-05-11T09:55:51.730Z,35.35
2023-05-11T09:58:18.267Z,34.70
2023-05-11T10:00:50.962Z,34.66
2023-05-11T10:03:17.687Z,34.41
2023-05-11T10:05:57.091Z,34.23
2023-05-11T10:08:31.052Z,34.29
2023-05-11T10:10:57.894Z,34.40
2023-05-11T10:13:24.779Z,34.25
2023-05-11T10:15:54.649Z,34.02
2023-05-11T10:18:21.312Z,33.87
2023-05-11T10:20:47.828Z,34.02
2023-05-11T10:23:15.147Z,34.00
2023-05-11T10:25:42.193Z,34.17
2023-05-11T10:28:09.487Z,34.17
2023-05-11T10:30:37.203Z,34.25
2023-05-11T10:33:04.374Z,34.36
2023-05-11T10:35:31.629Z,34.63
2023-05-11T10:37:58.441Z,34.57
2023-05-11T10:40:25.271Z,34.98
2023-05-11T10:43:18.306Z,35.19
2023-05-11T10:46:03.217Z,34.56
2023-05-11T10:48:39.558Z,34.84
2023-05-11T10:51:16.959Z,35.25
2023-05-11T10:53:55.607Z,35.69
2023-05-11T10:56:44.095Z,35.91
2023-05-11T10:59:36.107Z,35.28
2023-05-11T11:02:04.052Z,35.47
2023-05-11T11:04:48.078Z,35.19
2023-05-11T11:07:18.244Z,34.81
2023-05-11T11:10:07.050Z,34.81
2023-05-11T11:12:36.517Z,34.26
2023-05-11T11:15:06.278Z,34.26
2023-05-11T11:17:35.040Z,33.65
2023-05-11T11:20:08.908Z,33.15
2023-05-11T11:22:35.561Z,33.37
2023-05-11T11:25:05.064Z,33.97
2023-05-11T11:27:40.619Z,34.69
2023-05-11T11:30:23.350Z,34.61
2023-05-11T11:32:52.048Z,34.37
2023-05-11T11:35:40.570Z,34.85
2023-05-11T11:38:15.223Z,34.16
2023-05-11T11:43:19.064Z,33.49
2023-05-11T11:45:59.611Z,33.23
2023-05-11T11:48:35.506Z,32.95
2023-05-11T11:51:04.622Z,32.79
2023-05-11T11:53:44.605Z,32.62
2023-05-11T11:56:14.141Z,32.05
2023-05-11T11:58:44.397Z,32.41
2023-05-11T12:01:21.307Z,32.88
2023-05-11T12:03:54.518Z,33.51
2023-05-11T12:06:26.696Z,33.79
2023-05-11T12:08:53.678Z,34.02
2023-05-11T12:11:23.105Z,34.24
2023-05-11T12:13:49.709Z,34.56
2023-05-11T12:16:17.297Z,34.81
2023-05-11T12:18:52.968Z,35.20
2023-05-11T12:21:27.717Z,35.32
2023-05-11T12:23:55.817Z,36.12
2023-05-11T12:26:24.249Z,36.84
2023-05-11T12:28:51.676Z,37.32
2023-05-11T12:31:18.728Z,37.17
2023-05-11T12:33:47.025Z,37.17
2023-05-11T12:36:15.538Z,36.55
2023-05-11T12:38:46.027Z,36.83
2023-05-11T12:41:18.929Z,37.69
2023-05-11T12:43:46.097Z,37.76
2023-05-11T12:46:13.415Z,38.38
2023-05-11T12:48:40.533Z,38.39
2023-05-11T12:51:07.142Z,37.99
2023-05-11T12:53:37.029Z,37.99
2023-05-11T12:56:04.682Z,38.05
2023-05-11T12:58:38.891Z,38.31
2023-05-11T13:01:06.857Z,37.86
2023-05-11T13:03:35.290Z,37.04
2023-05-11T13:06:09.548Z,36.48
2023-05-11T13:08:46.522Z,35.71
2023-05-11T13:11:17.392Z,35.22
2023-05-11T13:13:44.638Z,34.70
2023-05-11T13:16:11.218Z,34.36
2023-05-11T13:18:37.765Z,34.22
2023-05-11T13:21:06.245Z,34.05
2023-05-11T13:23:32.980Z,34.01
2023-05-11T13:25:59.473Z,34.04
2023-05-11T13:28:26.453Z,33.98
2023-05-11T13:31:00.145Z,34.41
2023-05-11T13:33:26.898Z,34.12
2023-05-11T13:35:53.392Z,33.60
2023-05-11T13:38:19.958Z,33.13
2023-05-11T13:40:46.682Z,32.90
2023-05-11T13:43:13.340Z,32.72
2023-05-11T13:45:42.794Z,32.18
2023-05-11T13:48:09.367Z,32.07
2023-05-11T13:50:35.975Z,31.91
2023-05-11T13:53:02.534Z,31.62
2023-05-11T13:55:29.558Z,31.38
2023-05-11T13:57:56.840Z,31.44
2023-05-11T14:00:23.507Z,31.48
2023-05-11T14:02:51.469Z,31.31
2023-05-11T14:05:18.601Z,31.11
2023-05-11T14:07:48.278Z,30.99
2023-05-11T14:10:16.801Z,30.80
2023-05-11T14:12:43.491Z,30.79
2023-05-11T14:15:10.603Z,30.71
2023-05-11T14:17:37.434Z,30.78
2023-05-11T14:20:05.233Z,30.85
2023-05-11T14:22:31.722Z,30.82
2023-05-11T14:24:58.244Z,30.56
2023-05-11T14:27:24.746Z,30.49
2023-05-11T14:29:52.286Z,30.50
2023-05-11T14:32:19.463Z,30.66
2023-05-11T14:34:46.220Z,30.86
2023-05-11T14:37:13.238Z,30.84
2023-05-11T14:39:42.659Z,30.98
2023-05-11T14:42:09.976Z,30.75
2023-05-11T14:44:36.572Z,30.75
2023-05-11T14:47:03.118Z,30.81
2023-05-11T14:49:29.664Z,30.85
2023-05-11T14:51:57.619Z,30.76
2023-05-11T14:54:24.152Z,30.76
2023-05-11T14:56:54.020Z,30.70
2023-05-11T14:59:21.619Z,30.57
2023-05-11T15:01:49.395Z,30.57
2023-05-11T15:04:16.847Z,30.50
2023-05-11T15:06:43.755Z,30.37
2023-05-11T15:09:10.606Z,30.33
2023-05-11T15:11:40.113Z,30.48
2023-05-11T15:14:10.608Z,30.62
2023-05-11T15:16:37.482Z,30.63
2023-05-11T15:19:05.533Z,30.58
2023-05-11T15:21:32.577Z,30.37
2023-05-11T15:23:59.127Z,30.26
2023-05-11T15:26:25.998Z,30.20
2023-05-11T15:28:52.540Z,30.14
2023-05-11T15:31:19.324Z,30.26
2023-05-11T15:33:45.939Z,30.19
2023-05-11T15:36:13.922Z,30.28
2023-05-11T15:38:40.770Z,30.33
2023-05-11T15:41:07.865Z,30.33
2023-05-11T15:43:34.505Z,30.26
2023-05-11T15:46:03.478Z,30.21
2023-05-11T15:48:30.192Z,30.21
2023-05-11T15:50:58.803Z,30.15
2023-05-11T15:53:25.421Z,30.00
2023-05-11T15:55:55.136Z,29.98
2023-05-11T15:58:22.343Z,29.82
2023-05-11T16:00:49.148Z,29.75
2023-05-11T16:03:15.888Z,29.72
2023-05-11T16:05:42.663Z,29.63
2023-05-11T16:08:09.212Z,29.63
2023-05-11T16:10:35.772Z,29.65
2023-05-11T16:13:02.285Z,29.58
2023-05-11T16:15:31.187Z,29.47
2023-05-11T16:17:58.458Z,29.22
2023-05-11T16:20:25.227Z,29.21
2023-05-11T16:22:51.759Z,29.36
2023-05-11T16:25:18.333Z,29.39
2023-05-11T16:27:44.832Z,29.36
2023-05-11T16:30:23.117Z,29.38
2023-05-11T16:32:52.232Z,29.30
2023-05-11T16:35:18.919Z,29.19
2023-05-11T16:37:46.713Z,29.21
2023-05-11T16:40:13.279Z,29.31
2023-05-11T16:42:39.800Z,29.35
2023-05-11T16:45:07.214Z,29.34
2023-05-11T16:47:33.895Z,29.35
2023-05-11T16:50:00.634Z,29.39
2023-05-11T16:52:27.210Z,29.34
2023-05-11T16:54:53.687Z,29.34
2023-05-11T16:57:20.250Z,29.29
2023-05-11T16:59:46.775Z,29.34
2023-05-11T17:02:13.384Z,29.26
2023-05-11T17:04:39.996Z,29.24
2023-05-11T17:07:08.608Z,29.13
2023-05-11T17:09:35.098Z,29.09
2023-05-11T17:12:02.764Z,29.14
2023-05-11T17:14:29.270Z,29.09
2023-05-11T17:16:55.785Z,28.98
2023-05-11T17:19:22.299Z,29.06
2023-05-11T17:21:48.954Z,29.00
2023-05-11T17:24:15.487Z,28.90
2023-05-11T17:26:47.841Z,28.91
2023-05-11T17:29:16.497Z,28.87
2023-05-11T17:31:43.347Z,28.84
2023-05-11T17:34:10.395Z,28.73
2023-05-11T17:36:37.169Z,28.73
2023-05-11T17:39:03.789Z,28.64
2023-05-11T17:41:30.308Z,28.57
2023-05-11T17:43:57.245Z,28.50
2023-05-11T17:46:23.792Z,28.53
2023-05-11T17:48:50.328Z,28.46
2023-05-11T17:51:16.881Z,28.45
2023-05-11T17:53:43.365Z,28.43
2023-05-11T17:56:11.785Z,28.37
2023-05-11T17:58:38.421Z,28.35
2023-05-11T18:01:09.097Z,28.38
2023-05-11T18:03:36.070Z,28.93
2023-05-11T18:06:02.669Z,28.36
2023-05-11T18:08:29.167Z,28.22
2023-05-11T18:10:55.733Z,28.19
2023-05-11T18:13:22.731Z,28.17
2023-05-11T18:15:49.471Z,28.13
2023-05-11T18:18:16.345Z,28.15
2023-05-11T18:20:45.716Z,28.08
2023-05-11T18:23:13.170Z,28.04
2023-05-11T18:25:39.940Z,27.96
2023-05-11T18:28:06.507Z,27.93
2023-05-11T18:30:33.578Z,27.95
2023-05-11T18:33:00.244Z,27.94
2023-05-11T18:35:26.830Z,27.91
2023-05-11T18:37:54.232Z,27.86
2023-05-11T18:40:21.156Z,27.83
2023-05-11T18:42:47.910Z,27.82
2023-05-11T18:45:14.783Z,27.82
2023-05-11T18:47:46.113Z,27.79
2023-05-11T18:50:13.175Z,27.75
2023-05-11T18:52:39.750Z,27.68
2023-05-11T18:55:06.724Z,27.66
2023-05-11T18:57:34.413Z,27.62
2023-05-11T19:00:01.227Z,27.64
2023-05-11T19:02:28.016Z,27.63
2023-05-11T19:04:54.732Z,27.56
2023-05-11T19:07:21.330Z,27.57
2023-05-11T19:09:47.871Z,27.55
2023-05-11T19:12:14.491Z,27.50
2023-05-11T19:14:41.213Z,27.52
2023-05-11T19:17:07.783Z,27.48
2023-05-11T19:19:34.367Z,27.48
2023-05-11T19:22:01.042Z,27.47
2023-05-11T19:24:28.222Z,27.45
2023-05-11T19:27:05.994Z,27.45
2023-05-11T19:29:34.890Z,27.42
2023-05-11T19:32:01.762Z,27.38
2023-05-11T19:34:28.549Z,27.37
2023-05-11T19:36:55.101Z,27.31
2023-05-11T19:39:21.578Z,27.29
2023-05-11T19:41:48.093Z,27.30
2023-05-11T19:44:14.586Z,27.26
2023-05-11T19:46:46.313Z,27.26
2023-05-11T19:49:13.980Z,27.22
2023-05-11T19:51:40.509Z,27.17
2023-05-11T19:54:07.010Z,27.19
2023-05-11T19:56:33.887Z,27.16
2023-05-11T19:59:00.615Z,27.10
2023-05-11T20:01:27.253Z,27.09
2023-05-11T20:03:53.967Z,27.08
2023-05-11T20:06:20.592Z,27.07
2023-05-11T20:08:48.784Z,27.03
2023-05-11T20:11:15.583Z,27.02
2023-05-11T20:13:43.959Z,26.99
2023-05-11T20:16:10.688Z,26.98
2023-05-11T20:18:37.486Z,26.96
2023-05-11T20:21:04.316Z,26.96
2023-05-11T20:23:30.883Z,26.91
2023-05-11T20:25:57.431Z,26.90
2023-05-11T20:28:27.227Z,26.90
2023-05-11T20:30:55.971Z,26.90
2023-05-11T20:35:53.370Z,26.82
2023-05-11T20:38:20.260Z,26.84
2023-05-11T20:40:46.805Z,26.81
2023-05-11T20:43:14.782Z,26.78
2023-05-11T20:45:41.803Z,26.80
2023-05-11T20:48:08.551Z,26.73
2023-05-11T20:50:35.111Z,26.69
2023-05-11T20:53:01.673Z,26.66
2023-05-11T20:55:28.835Z,26.65
2023-05-11T20:57:55.396Z,26.63
2023-05-11T21:00:22.048Z,26.59
2023-05-11T21:02:48.915Z,26.55
2023-05-11T21:05:15.631Z,26.55
2023-05-11T21:07:42.144Z,26.51
2023-05-11T21:10:11.046Z,26.58
2023-05-11T21:12:37.608Z,26.49
2023-05-11T21:15:04.467Z,26.50
2023-05-11T21:17:31.108Z,26.48
2023-05-11T21:19:57.654Z,26.49
2023-05-11T21:22:24.217Z,26.46
2023-05-11T21:24:50.751Z,26.44
2023-05-11T21:27:17.276Z,26.41
2023-05-11T21:29:43.880Z,26.41
2023-05-11T21:32:10.542Z,26.37
2023-05-11T21:34:37.097Z,26.34
2023-05-11T21:37:03.664Z,26.19
2023-05-11T21:39:30.172Z,26.21
2023-05-11T21:41:56.892Z,26.18
2023-05-11T21:44:23.486Z,26.17
2023-05-11T21:46:50.505Z,26.15
2023-05-11T21:49:17.189Z,26.10
2023-05-11T21:51:43.693Z,26.11
2023-05-11T21:54:10.270Z,26.07
2023-05-11T21:56:36.922Z,26.10
2023-05-11T21:59:03.547Z,26.04
2023-05-11T22:01:30.062Z,26.00
2023-05-11T22:03:56.767Z,25.97
2023-05-11T22:06:23.403Z,25.97
2023-05-11T22:08:49.917Z,25.91
2023-05-11T22:11:16.450Z,25.87
2023-05-11T22:13:42.967Z,25.80
2023-05-11T22:16:09.526Z,25.74
2023-05-11T22:18:36.103Z,25.82
2023-05-11T22:21:02.866Z,25.81
2023-05-11T22:23:29.401Z,25.77
2023-05-11T22:25:55.914Z,25.73
2023-05-11T22:28:22.928Z,25.75
2023-05-11T22:30:49.495Z,25.74
2023-05-11T22:33:16.026Z,25.70
2023-05-11T22:35:42.558Z,25.67
2023-05-11T22:38:09.062Z,25.55
2023-05-11T22:40:35.586Z,25.58
2023-05-11T22:43:03.231Z,25.48
2023-05-11T22:45:29.790Z,25.51
2023-05-11T22:47:56.289Z,25.45
2023-05-11T22:50:22.820Z,25.37
2023-05-11T22:52:49.307Z,25.35
2023-05-11T22:55:15.897Z,25.26
2023-05-11T22:57:42.425Z,25.24
2023-05-11T23:00:12.225Z,25.19
2023-05-11T23:02:38.782Z,25.21
2023-05-11T23:05:05.846Z,25.19
2023-05-11T23:07:32.388Z,25.12
2023-05-11T23:09:58.990Z,25.07
2023-05-11T23:12:25.482Z,25.02
2023-05-11T23:14:52.381Z,24.97
2023-05-11T23:17:18.922Z,24.92
2023-05-11T23:19:45.446Z,24.90
2023-05-11T23:22:11.989Z,24.89
2023-05-11T23:24:38.468Z,24.86
2023-05-11T23:27:05.190Z,24.83
2023-05-11T23:29:31.903Z,24.79
2023-05-11T23:31:58.417Z,24.70
2023-05-11T23:34:24.912Z,24.66
2023-05-11T23:36:51.510Z,24.56
2023-05-11T23:39:18.007Z,24.57
2023-05-11T23:41:44.673Z,24.57
2023-05-11T23:44:11.680Z,24.49
2023-05-11T23:46:38.615Z,24.49
2023-05-11T23:49:05.153Z,24.46
2023-05-11T23:51:32.377Z,24.41
2023-05-11T23:53:59.617Z,24.39
2023-05-11T23:56:26.192Z,24.37
2023-05-11T23:58:52.741Z,24.26
